Time;durP1;ratioP1;P1;durP2;ratioP2;P2;SDS_P1;SDS_P2;PMS_P1;PMS_P2;Temp;Humidity;BMP_temperature;BMP_pressure;BME280_temperature;BME280_humidity;BME280_pressure;Samples;Min_cycle;Max_cycle;Signal;HPM_P1;HPM_P2
2021/01/08 00:03:03;;;;;;;1.70;0.60;;;15.70;62.50;;;;;;10497162;28;20029;-59
2021/01/08 00:08:05;;;;;;;1.52;0.52;;;15.70;62.50;;;;;;10496973;28;20020;-59
2021/01/08 00:13:06;;;;;;;2.20;0.70;;;15.60;62.40;;;;;;10496986;28;20458;-59
2021/01/08 00:18:07;;;;;;;0.50;0.40;;;15.60;62.40;;;;;;10496577;28;20401;-59
2021/01/08 00:23:08;;;;;;;1.23;0.50;;;15.60;62.50;;;;;;10496490;28;20032;-59
2021/01/08 00:28:09;;;;;;;1.02;0.43;;;15.60;62.50;;;;;;10488975;28;20052;-59
2021/01/08 00:33:10;;;;;;;6.55;0.73;;;15.50;62.50;;;;;;10496369;28;20043;-59
2021/01/08 00:38:11;;;;;;;0.77;0.40;;;15.50;62.50;;;;;;10496545;28;20029;-59
2021/01/08 00:43:12;;;;;;;1.27;0.30;;;15.50;62.60;;;;;;10496124;28;20032;-59
2021/01/08 00:48:12;;;;;;;1.33;0.40;;;15.50;62.60;;;;;;10496136;28;20035;-59
2021/01/08 00:53:13;;;;;;;0.70;0.50;;;15.50;62.60;;;;;;10495965;28;20430;-60
2021/01/08 00:58:14;;;;;;;1.67;0.73;;;15.50;62.60;;;;;;10495963;28;20040;-59
2021/01/08 01:03:14;;;;;;;0.90;0.45;;;15.40;62.50;;;;;;10495663;28;20115;-60
2021/01/08 01:08:15;;;;;;;0.88;0.40;;;15.40;62.50;;;;;;10495611;28;20113;-59
2021/01/08 01:13:16;;;;;;;1.30;0.47;;;15.40;62.50;;;;;;10495524;28;20529;-60
2021/01/08 01:18:17;;;;;;;0.47;0.35;;;15.40;62.50;;;;;;10495364;28;20049;-60
2021/01/08 01:23:18;;;;;;;0.45;0.30;;;15.40;62.60;;;;;;10495412;28;20099;-60
2021/01/08 01:28:19;;;;;;;0.70;0.35;;;15.30;62.50;;;;;;10495409;28;20471;-59
2021/01/08 01:33:19;;;;;;;0.90;0.40;;;15.30;62.50;;;;;;10495977;28;20035;-59
2021/01/08 01:38:21;;;;;;;0.57;0.40;;;15.30;62.60;;;;;;10503063;28;20104;-59
2021/01/08 01:43:22;;;;;;;0.35;0.35;;;15.30;62.60;;;;;;10491044;28;20082;-59
2021/01/08 01:48:23;;;;;;;2.78;0.60;;;15.30;62.60;;;;;;10502275;28;20154;-60
2021/01/08 01:53:24;;;;;;;0.70;0.40;;;15.30;62.60;;;;;;10502537;28;20036;-60
2021/01/08 01:58:25;;;;;;;0.50;0.40;;;15.20;62.50;;;;;;10493119;28;20396;-60
2021/01/08 02:03:36;;;;;;;1.38;0.43;;;15.20;62.60;;;;;;10501987;28;20067;-60
2021/01/08 02:08:42;;;;;;;1.15;0.60;;;15.20;62.60;;;;;;10497320;28;20032;-59
2021/01/08 02:13:46;;;;;;;1.05;0.40;;;15.20;62.60;;;;;;10500320;28;20052;-60
2021/01/08 02:18:49;;;;;;;1.05;0.30;;;15.20;62.60;;;;;;10501265;28;20048;-59
2021/01/08 02:24:32;;;;;;;0.30;0.30;;;15.10;62.60;;;;;;10500153;28;20432;-60
2021/01/08 02:29:34;;;;;;;1.60;0.40;;;15.10;62.60;;;;;;10500985;28;20070;-60
2021/01/08 02:34:36;;;;;;;0.43;0.30;;;15.10;62.60;;;;;;10495386;28;20039;-59
2021/01/08 02:39:37;;;;;;;0.50;0.40;;;15.10;62.60;;;;;;10500725;28;20506;-60
2021/01/08 02:44:37;;;;;;;0.68;0.50;;;15.10;62.60;;;;;;10499658;28;20036;-60
2021/01/08 02:49:38;;;;;;;0.40;0.30;;;15.10;62.60;;;;;;10499954;28;20107;-60
2021/01/08 02:54:39;;;;;;;0.77;0.20;;;15.10;62.60;;;;;;10499993;28;20111;-59
2021/01/08 02:59:40;;;;;;;0.57;0.40;;;15.00;62.60;;;;;;10498029;28;20452;-59
2021/01/08 03:04:41;;;;;;;0.60;0.30;;;15.00;62.70;;;;;;10497511;28;20351;-60
2021/01/08 03:09:41;;;;;;;0.68;0.32;;;15.00;62.60;;;;;;10497877;28;20040;-59
2021/01/08 03:14:44;;;;;;;1.23;0.40;;;15.00;62.60;;;;;;10498023;28;20111;-59
2021/01/08 03:19:45;;;;;;;0.38;0.30;;;15.00;62.70;;;;;;10497603;28;20067;-60
2021/01/08 03:24:45;;;;;;;0.70;0.40;;;14.90;62.60;;;;;;10498799;28;20405;-60
2021/01/08 03:29:46;;;;;;;0.98;0.50;;;14.90;62.60;;;;;;10489519;28;20535;-59
2021/01/08 03:34:47;;;;;;;0.85;0.38;;;14.90;62.60;;;;;;10498280;28;20021;-59
2021/01/08 03:39:47;;;;;;;0.50;0.30;;;14.90;62.60;;;;;;10498436;28;20518;-60
2021/01/08 03:44:48;;;;;;;0.40;0.20;;;14.90;62.60;;;;;;10496777;28;20462;-60
2021/01/08 03:49:49;;;;;;;0.57;0.30;;;14.90;62.70;;;;;;10496436;28;20090;-60
2021/01/08 03:54:50;;;;;;;0.75;0.32;;;14.80;62.60;;;;;;10497772;28;20021;-60
2021/01/08 03:59:50;;;;;;;1.00;0.30;;;14.80;62.60;;;;;;10497765;28;20035;-60
2021/01/08 04:04:51;;;;;;;0.52;0.35;;;14.80;62.60;;;;;;10497714;28;20048;-60
2021/01/08 04:09:52;;;;;;;0.25;0.20;;;14.80;62.60;;;;;;10497564;28;20504;-60
2021/01/08 04:14:52;;;;;;;0.50;0.40;;;14.80;62.60;;;;;;10496265;28;20028;-60
2021/01/08 04:19:53;;;;;;;0.30;0.30;;;14.80;62.60;;;;;;10496937;28;20047;-60
2021/01/08 04:24:54;;;;;;;0.38;0.32;;;14.80;62.60;;;;;;10497138;28;20031;-60
2021/01/08 04:29:54;;;;;;;0.90;0.47;;;14.80;62.60;;;;;;10497394;28;20017;-60
2021/01/08 04:34:55;;;;;;;0.60;0.25;;;14.80;62.60;;;;;;10496722;28;20025;-60
2021/01/08 04:39:56;;;;;;;0.68;0.30;;;14.70;62.60;;;;;;10496949;28;20111;-61
2021/01/08 04:44:56;;;;;;;0.45;0.32;;;14.70;62.60;;;;;;10496597;28;20064;-60
2021/01/08 04:49:57;;;;;;;0.80;0.30;;;14.70;62.60;;;;;;10496548;28;20143;-60
2021/01/08 04:54:59;;;;;;;0.30;0.30;;;14.70;62.60;;;;;;10496153;28;20574;-60
2021/01/08 05:00:00;;;;;;;0.50;0.30;;;14.70;62.60;;;;;;10495137;28;20028;-60
2021/01/08 05:05:01;;;;;;;0.30;0.20;;;14.70;62.60;;;;;;10494540;28;20028;-60
2021/01/08 05:10:02;;;;;;;0.60;0.30;;;14.70;62.70;;;;;;10498601;28;20107;-60
2021/01/08 05:15:09;;;;;;;1.05;0.30;;;14.70;63.10;;;;;;10504352;28;20107;-60
2021/01/08 05:20:10;;;;;;;0.47;0.30;;;14.70;62.60;;;;;;10503803;28;20046;-60
2021/01/08 05:25:12;;;;;;;0.38;0.20;;;14.60;62.60;;;;;;10503633;28;20381;-60
2021/01/08 05:30:18;;;;;;;0.77;0.30;;;14.60;62.60;;;;;;10502486;28;20036;-60
2021/01/08 05:35:18;;;;;;;0.40;0.30;;;14.60;62.60;;;;;;10503374;28;20515;-60
2021/01/08 05:40:25;;;;;;;0.45;0.32;;;14.60;62.60;;;;;;10501626;28;20035;-61
2021/01/08 05:45:28;;;;;;;0.20;0.20;;;14.60;62.60;;;;;;10501562;28;20032;-60
2021/01/08 05:50:30;;;;;;;0.35;0.28;;;14.70;62.60;;;;;;10501595;28;20533;-60
2021/01/08 05:55:36;;;;;;;0.52;0.40;;;14.80;62.50;;;;;;10504595;28;20029;-61
2021/01/08 06:00:37;;;;;;;0.35;0.35;;;14.90;62.10;;;;;;10502434;28;20476;-61
2021/01/08 06:05:39;;;;;;;0.50;0.20;;;15.20;61.70;;;;;;10502089;28;20103;-61
2021/01/08 06:10:44;;;;;;;0.47;0.22;;;15.40;61.20;;;;;;10501073;28;20035;-61
2021/01/08 06:15:46;;;;;;;0.40;0.20;;;15.50;60.60;;;;;;10501967;28;20025;-62
2021/01/08 06:20:54;;;;;;;0.20;0.20;;;15.70;60.40;;;;;;10496561;28;20040;-61
2021/01/08 06:25:58;;;;;;;0.50;0.40;;;15.90;60.10;;;;;;10500829;28;20526;-61
2021/01/08 06:31:05;;;;;;;1.75;0.30;;;16.00;59.70;;;;;;10490083;28;20081;-60
2021/01/08 06:36:30;;;;;;;0.93;0.30;;;16.00;60.20;;;;;;10494474;28;20025;-59
2021/01/08 06:41:30;;;;;;;4.65;0.40;;;16.10;60.30;;;;;;10496179;28;20025;-63
2021/01/08 06:46:39;;;;;;;3.75;0.57;;;16.10;61.50;;;;;;10500886;28;20379;-60
2021/01/08 06:51:43;;;;;;;8.25;0.82;;;16.20;61.50;;;;;;10491991;28;20041;-60
2021/01/08 06:56:45;;;;;;;4.35;1.00;;;16.30;61.10;;;;;;10486581;28;20082;-61
2021/01/08 07:02:11;;;;;;;6.75;0.80;;;16.40;60.80;;;;;;10500084;28;20021;-62
2021/01/08 07:07:26;;;;;;;6.55;0.93;;;16.50;61.20;;;;;;10499930;28;20038;-59
2021/01/08 07:12:27;;;;;;;14.00;1.20;;;16.70;61.50;;;;;;10498242;28;20075;-60
2021/01/08 07:17:33;;;;;;;4.38;0.60;;;16.70;61.90;;;;;;10498936;28;20037;-58
2021/01/08 07:22:39;;;;;;;10.35;1.02;;;16.90;60.20;;;;;;10497463;28;20028;-60
2021/01/08 07:27:43;;;;;;;7.53;0.85;;;17.00;60.20;;;;;;10496797;28;20668;-60
2021/01/08 07:32:50;;;;;;;4.70;0.70;;;17.10;60.20;;;;;;10494997;28;20111;-59
2021/01/08 07:37:59;;;;;;;4.60;0.70;;;17.20;59.50;;;;;;10487282;28;20029;-62
2021/01/08 07:43:06;;;;;;;4.45;1.02;;;17.30;59.30;;;;;;10468019;28;20056;-62
2021/01/08 07:48:26;;;;;;;8.70;0.85;;;17.30;59.50;;;;;;10496798;28;20039;-66
2021/01/08 07:53:56;;;;;;;7.70;1.27;;;17.50;59.60;;;;;;10497637;28;20029;-60
2021/01/08 07:59:04;;;;;;;5.35;1.30;;;17.50;59.20;;;;;;10478430;28;20040;-58
2021/01/08 08:04:10;;;;;;;7.53;1.80;;;17.50;59.00;;;;;;10489270;28;20024;-60
2021/01/08 08:09:14;;;;;;;12.93;1.63;;;17.60;59.20;;;;;;10497352;28;20360;-59
2021/01/08 08:14:18;;;;;;;10.35;1.10;;;17.60;59.40;;;;;;10494411;28;20089;-62
2021/01/08 08:19:19;;;;;;;12.60;1.90;;;17.70;59.60;;;;;;10494328;28;20040;-59
2021/01/08 08:24:20;;;;;;;9.35;1.50;;;17.80;59.60;;;;;;10492118;28;20135;-58
2021/01/08 08:29:22;;;;;;;13.15;1.70;;;17.90;59.30;;;;;;10478325;28;20024;-61
2021/01/08 08:34:31;;;;;;;9.60;1.60;;;17.90;59.50;;;;;;10464560;28;20040;-62
2021/01/08 08:39:32;;;;;;;17.20;2.50;;;18.00;59.50;;;;;;10464348;28;20040;-57
2021/01/08 08:44:42;;;;;;;13.32;2.10;;;18.10;59.40;;;;;;10493393;28;20040;-59
2021/01/08 08:49:44;;;;;;;7.93;1.48;;;18.10;59.10;;;;;;10494965;28;20480;-58
2021/01/08 08:54:45;;;;;;;8.95;1.83;;;18.10;58.80;;;;;;10489229;28;20025;-59
2021/01/08 08:59:46;;;;;;;8.00;1.52;;;18.10;58.80;;;;;;10495184;28;20123;-59
2021/01/08 09:05:02;;;;;;;17.38;2.33;;;18.20;58.60;;;;;;10484146;28;20067;-59
2021/01/08 09:10:15;;;;;;;13.10;1.08;;;18.20;58.30;;;;;;10466835;28;20040;-59
2021/01/08 09:15:30;;;;;;;5.05;0.98;;;18.30;58.10;;;;;;10466511;28;20035;-58
2021/01/08 09:20:34;;;;;;;6.97;1.15;;;18.30;58.20;;;;;;10484978;28;20469;-59
2021/01/08 09:25:36;;;;;;;4.20;0.63;;;18.30;58.20;;;;;;10491511;28;20028;-58
2021/01/08 09:30:51;;;;;;;3.08;0.93;;;18.40;57.90;;;;;;10494013;28;20496;-57
2021/01/08 09:35:52;;;;;;;4.53;1.13;;;18.40;57.70;;;;;;10495193;28;20025;-58
2021/01/08 09:40:53;;;;;;;5.55;1.23;;;18.40;57.80;;;;;;10503302;28;20520;-58
2021/01/08 09:46:05;;;;;;;3.13;0.65;;;18.40;57.70;;;;;;10498251;28;20146;-60
2021/01/08 09:51:07;;;;;;;8.57;0.95;;;18.50;57.50;;;;;;10506698;28;20031;-60
2021/01/08 09:56:12;;;;;;;9.40;1.75;;;18.50;57.10;;;;;;10494933;28;20020;-59
2021/01/08 10:01:13;;;;;;;11.43;1.90;;;18.50;57.90;;;;;;10501730;28;20036;-59
2021/01/08 10:06:14;;;;;;;11.18;1.73;;;18.60;58.90;;;;;;10501829;28;20040;-58
2021/01/08 10:11:27;;;;;;;8.20;1.23;;;18.70;58.70;;;;;;10501379;28;20473;-58
2021/01/08 10:16:37;;;;;;;15.90;1.45;;;18.70;58.80;;;;;;10514363;28;20052;-58
2021/01/08 10:21:42;;;;;;;3.78;0.70;;;18.70;58.80;;;;;;10498619;28;20593;-58
2021/01/08 10:26:43;;;;;;;5.43;1.55;;;18.80;58.80;;;;;;10487486;28;20465;-60
2021/01/08 10:31:43;;;;;;;7.60;1.40;;;18.80;58.90;;;;;;10483083;28;20115;-59
2021/01/08 10:36:44;;;;;;;12.13;1.60;;;18.80;58.90;;;;;;10469924;28;20477;-59
2021/01/08 10:41:48;;;;;;;10.05;1.42;;;18.80;58.80;;;;;;10490684;28;20594;-62
2021/01/08 10:46:48;;;;;;;7.43;1.42;;;18.90;59.10;;;;;;10485570;28;20033;-61
2021/01/08 10:51:49;;;;;;;7.13;0.93;;;18.90;58.90;;;;;;10498679;28;20025;-60
2021/01/08 10:56:50;;;;;;;6.97;1.35;;;18.90;58.90;;;;;;10489882;28;20055;-60
2021/01/08 11:01:51;;;;;;;12.48;1.63;;;18.90;58.90;;;;;;10499852;28;20491;-60
2021/01/08 11:06:56;;;;;;;17.45;1.88;;;19.00;58.90;;;;;;10478782;28;20046;-60
2021/01/08 11:11:57;;;;;;;6.07;1.27;;;19.10;58.80;;;;;;10483643;28;20028;-60
2021/01/08 11:16:58;;;;;;;10.88;1.17;;;19.10;58.20;;;;;;10488100;28;20469;-61
2021/01/08 11:21:59;;;;;;;13.68;1.55;;;19.10;58.50;;;;;;10510471;28;20107;-62
2021/01/08 11:27:00;;;;;;;11.75;1.63;;;19.10;58.80;;;;;;10498884;28;20028;-68
2021/01/08 11:32:01;;;;;;;12.65;1.52;;;19.10;59.80;;;;;;10503216;28;20023;-61
2021/01/08 11:37:01;;;;;;;11.63;1.38;;;19.10;59.90;;;;;;10498442;28;20017;-61
2021/01/08 11:42:02;;;;;;;6.72;1.58;;;19.10;60.10;;;;;;10501137;28;20021;-61
2021/01/08 11:47:03;;;;;;;5.10;1.15;;;19.00;60.60;;;;;;10496593;28;20025;-59
2021/01/08 11:52:04;;;;;;;7.55;1.05;;;19.00;61.10;;;;;;10499418;28;20427;-62
2021/01/08 11:57:05;;;;;;;9.45;1.08;;;18.90;60.50;;;;;;10497952;28;20028;-62
2021/01/08 12:02:07;;;;;;;10.38;1.60;;;18.90;61.00;;;;;;10496197;28;20036;-60
2021/01/08 12:07:08;;;;;;;6.35;2.08;;;18.90;60.50;;;;;;10497259;28;20064;-61
2021/01/08 12:12:10;;;;;;;14.80;1.63;;;18.90;60.40;;;;;;10503791;28;20032;-61
2021/01/08 12:17:10;;;;;;;19.90;2.50;;;18.90;60.80;;;;;;10496256;28;20058;-60
2021/01/08 12:22:11;;;;;;;17.13;2.55;;;18.80;61.00;;;;;;10504642;28;20039;-66
2021/01/08 12:27:12;;;;;;;10.43;2.75;;;18.80;61.40;;;;;;10495048;28;20033;-61
2021/01/08 12:32:13;;;;;;;22.80;3.72;;;18.70;61.30;;;;;;10483072;28;20036;-62
2021/01/08 12:37:13;;;;;;;13.10;2.42;;;18.70;61.50;;;;;;10496338;28;20035;-58
2021/01/08 12:42:14;;;;;;;11.75;1.52;;;18.70;61.50;;;;;;10493574;28;20039;-61
2021/01/08 12:47:15;;;;;;;9.80;2.47;;;18.70;61.60;;;;;;10496681;28;20035;-62
2021/01/08 12:52:16;;;;;;;13.70;2.20;;;18.60;61.80;;;;;;10500648;28;20085;-59
2021/01/08 12:57:17;;;;;;;15.07;1.85;;;18.60;61.50;;;;;;10496268;28;20017;-60
2021/01/08 13:02:17;;;;;;;14.95;2.17;;;18.70;61.40;;;;;;10495754;28;20040;-58
2021/01/08 13:07:18;;;;;;;13.55;1.90;;;18.70;61.30;;;;;;10496004;28;20050;-59
2021/01/08 13:12:19;;;;;;;11.27;1.65;;;18.70;61.00;;;;;;10492670;28;20025;-60
2021/01/08 13:17:19;;;;;;;10.13;1.98;;;18.70;60.20;;;;;;10495574;28;20044;-60
2021/01/08 13:22:21;;;;;;;8.02;1.67;;;18.70;60.20;;;;;;10508654;28;20119;-60
2021/01/08 13:27:22;;;;;;;6.15;1.15;;;18.70;60.00;;;;;;10496031;28;20607;-60
2021/01/08 13:32:22;;;;;;;13.63;2.35;;;18.80;59.80;;;;;;10493594;28;20116;-60
2021/01/08 13:37:23;;;;;;;7.45;1.08;;;18.80;59.70;;;;;;10502477;28;20516;-60
2021/01/08 13:42:24;;;;;;;12.98;1.48;;;18.80;59.50;;;;;;10505209;28;20027;-60
2021/01/08 13:47:29;;;;;;;5.63;1.05;;;18.80;59.60;;;;;;10505140;28;20028;-62
2021/01/08 13:52:35;;;;;;;4.85;1.38;;;18.80;60.10;;;;;;10495997;28;20074;-61
2021/01/08 13:57:35;;;;;;;8.23;1.20;;;18.70;60.30;;;;;;10503061;28;20028;-62
2021/01/08 14:02:36;;;;;;;11.25;1.70;;;18.70;59.60;;;;;;10516343;28;20051;-62
2021/01/08 14:07:37;;;;;;;11.95;1.42;;;18.70;59.90;;;;;;10496291;28;20056;-63
2021/01/08 14:12:38;;;;;;;16.02;1.77;;;18.70;59.90;;;;;;10501287;28;20039;-62
2021/01/08 14:17:39;;;;;;;12.02;1.45;;;18.80;60.00;;;;;;10490113;28;20039;-62
2021/01/08 14:22:44;;;;;;;8.52;1.20;;;18.70;60.10;;;;;;10478947;28;20032;-65
2021/01/08 14:27:45;;;;;;;12.65;2.00;;;18.70;60.10;;;;;;10496434;28;20040;-63
2021/01/08 14:32:45;;;;;;;9.23;1.73;;;18.70;60.30;;;;;;10491989;28;20179;-64
2021/01/08 14:37:46;;;;;;;8.95;1.20;;;18.70;60.30;;;;;;10497696;28;20459;-64
2021/01/08 14:42:47;;;;;;;12.13;2.42;;;18.80;60.50;;;;;;10479247;28;20108;-63
2021/01/08 14:47:48;;;;;;;5.15;1.58;;;18.70;60.50;;;;;;10500195;28;20040;-64
2021/01/08 14:52:49;;;;;;;7.88;1.17;;;18.80;60.50;;;;;;10494587;28;20055;-63
2021/01/08 14:57:51;;;;;;;18.95;1.83;;;18.80;61.40;;;;;;10501942;28;20063;-64
2021/01/08 15:02:52;;;;;;;9.40;1.20;;;18.70;61.70;;;;;;10498438;28;20032;-63
2021/01/08 15:07:52;;;;;;;14.20;2.30;;;18.70;62.00;;;;;;10503869;28;20094;-65
2021/01/08 15:12:54;;;;;;;5.45;1.05;;;18.70;62.20;;;;;;10497906;28;20460;-63
2021/01/08 15:17:54;;;;;;;4.07;0.93;;;18.60;62.10;;;;;;10495884;28;20124;-63
2021/01/08 15:22:56;;;;;;;5.75;1.23;;;18.60;62.10;;;;;;10498630;28;20536;-64
2021/01/08 15:27:57;;;;;;;6.20;1.63;;;18.60;62.10;;;;;;10514042;28;20116;-63
2021/01/08 15:32:58;;;;;;;6.85;1.42;;;18.60;62.50;;;;;;10480379;28;20067;-62
2021/01/08 15:37:58;;;;;;;3.10;1.02;;;18.60;62.10;;;;;;10498013;28;20154;-64
2021/01/08 15:42:59;;;;;;;8.68;2.30;;;18.60;62.10;;;;;;10505611;28;20127;-62
2021/01/08 15:48:01;;;;;;;10.38;1.10;;;18.70;61.90;;;;;;10508383;28;20029;-66
2021/01/08 15:53:02;;;;;;;8.68;1.60;;;18.70;62.00;;;;;;10495847;28;20025;-65
2021/01/08 15:58:03;;;;;;;12.80;1.25;;;18.60;61.40;;;;;;10487974;28;20025;-63
2021/01/08 16:03:03;;;;;;;8.55;1.80;;;18.60;61.30;;;;;;10491879;28;20123;-68
2021/01/08 16:08:05;;;;;;;7.05;1.40;;;18.60;61.50;;;;;;10493962;28;20453;-65
2021/01/08 16:13:05;;;;;;;15.27;2.03;;;18.60;61.60;;;;;;10496669;28;20028;-68
2021/01/08 16:18:06;;;;;;;10.18;1.55;;;18.60;61.80;;;;;;10497013;28;20045;-64
2021/01/08 16:23:07;;;;;;;12.98;2.30;;;18.60;62.00;;;;;;10497119;28;20077;-61
2021/01/08 16:28:08;;;;;;;12.82;1.67;;;18.50;62.10;;;;;;10498967;28;20029;-62
2021/01/08 16:33:09;;;;;;;12.05;3.67;;;18.50;61.80;;;;;;10496207;28;20036;-59
2021/01/08 16:38:09;;;;;;;11.02;2.92;;;18.40;60.30;;;;;;10494471;28;20039;-59
2021/01/08 16:43:10;;;;;;;8.27;2.10;;;18.40;59.70;;;;;;10505822;28;20059;-65
2021/01/08 16:48:12;;;;;;;10.13;2.70;;;18.40;59.00;;;;;;10478406;28;20036;-62
2021/01/08 16:53:13;;;;;;;19.95;2.03;;;18.60;58.40;;;;;;10495200;28;20083;-62
2021/01/08 16:58:13;;;;;;;26.77;3.53;;;18.70;58.00;;;;;;10483020;28;20063;-59
2021/01/08 17:03:14;;;;;;;8.45;2.00;;;18.80;57.40;;;;;;10494413;28;20089;-63
2021/01/08 17:08:15;;;;;;;8.02;1.63;;;18.80;56.70;;;;;;10502488;28;20024;-61
2021/01/08 17:13:16;;;;;;;8.80;2.47;;;18.80;56.30;;;;;;10508599;28;20119;-64
2021/01/08 17:18:17;;;;;;;11.65;2.03;;;18.80;58.10;;;;;;10503761;28;20051;-61
2021/01/08 17:23:18;;;;;;;13.80;1.83;;;18.90;60.10;;;;;;10504191;28;20064;-64
2021/01/08 17:28:18;;;;;;;7.03;1.63;;;19.00;59.90;;;;;;10502126;28;20029;-63
2021/01/08 17:33:19;;;;;;;6.15;1.67;;;19.00;60.10;;;;;;10489544;28;20045;-61
2021/01/08 17:38:20;;;;;;;5.03;1.45;;;19.00;60.20;;;;;;10503592;28;20048;-58
2021/01/08 17:43:21;;;;;;;7.68;1.10;;;18.90;60.60;;;;;;10503560;28;20032;-61
2021/01/08 17:48:22;;;;;;;4.93;1.08;;;18.90;60.30;;;;;;10500520;28;20024;-60
2021/01/08 17:53:23;;;;;;;4.40;0.82;;;18.80;61.00;;;;;;10484104;28;20028;-62
2021/01/08 17:58:24;;;;;;;8.93;0.90;;;18.80;61.10;;;;;;10470871;28;20530;-60
2021/01/08 18:03:28;;;;;;;14.32;0.98;;;18.80;61.10;;;;;;10479059;28;20017;-60
2021/01/08 18:08:28;;;;;;;9.45;1.85;;;18.70;60.50;;;;;;10502636;28;20039;-60
2021/01/08 18:13:32;;;;;;;9.85;1.60;;;18.70;60.40;;;;;;10502138;28;20021;-59
2021/01/08 18:18:33;;;;;;;6.85;1.50;;;18.70;60.60;;;;;;10501674;28;20041;-59
2021/01/08 18:23:34;;;;;;;7.07;1.15;;;18.70;60.40;;;;;;10502210;28;20453;-60
2021/01/08 18:28:34;;;;;;;5.70;1.10;;;18.70;60.30;;;;;;10500519;28;20115;-60
2021/01/08 18:33:35;;;;;;;2.63;0.75;;;18.80;60.80;;;;;;10499642;28;20394;-61
2021/01/08 18:38:36;;;;;;;9.50;1.77;;;18.80;61.00;;;;;;10501119;28;20054;-62
2021/01/08 18:43:36;;;;;;;5.80;1.08;;;18.80;61.10;;;;;;10500082;28;20062;-63
2021/01/08 18:48:37;;;;;;;7.05;1.00;;;18.80;61.00;;;;;;10499659;28;20131;-61
2021/01/08 18:53:38;;;;;;;6.32;1.17;;;18.90;60.30;;;;;;10500827;28;20100;-61
2021/01/08 18:58:39;;;;;;;4.85;1.20;;;18.80;60.50;;;;;;10500436;28;20384;-58
2021/01/08 19:03:40;;;;;;;5.32;1.42;;;18.80;61.30;;;;;;10500549;28;20366;-59
2021/01/08 19:08:41;;;;;;;4.95;1.30;;;18.70;62.50;;;;;;10500163;28;20420;-58
2021/01/08 19:13:42;;;;;;;8.07;1.23;;;18.70;63.20;;;;;;10499983;28;20028;-59
2021/01/08 19:18:44;;;;;;;4.15;0.73;;;18.70;63.50;;;;;;10499410;28;20119;-59
2021/01/08 19:23:45;;;;;;;5.32;1.20;;;18.70;63.60;;;;;;10499546;28;20063;-58
2021/01/08 19:28:48;;;;;;;5.93;1.33;;;18.70;63.80;;;;;;10497867;28;20040;-59
2021/01/08 19:33:49;;;;;;;5.63;1.48;;;18.70;63.50;;;;;;10496032;28;20108;-63
2021/01/08 19:38:50;;;;;;;3.42;1.20;;;18.70;63.30;;;;;;10495917;28;20850;-62
2021/01/08 19:43:52;;;;;;;5.22;0.93;;;18.70;63.00;;;;;;10497277;28;20028;-62
2021/01/08 19:48:54;;;;;;;2.83;0.95;;;18.80;62.70;;;;;;10491009;28;20145;-64
2021/01/08 19:53:55;;;;;;;4.70;1.15;;;18.80;62.50;;;;;;10485597;28;20027;-65
2021/01/08 19:58:55;;;;;;;4.95;1.02;;;18.80;62.40;;;;;;10492189;28;20025;-63
2021/01/08 20:03:57;;;;;;;5.13;1.10;;;18.80;62.30;;;;;;10493019;28;20112;-63
2021/01/08 20:08:58;;;;;;;3.83;0.90;;;18.80;62.20;;;;;;10496497;28;20091;-64
2021/01/08 20:14:00;;;;;;;2.15;0.82;;;18.70;62.10;;;;;;10496345;28;20037;-64
2021/01/08 20:19:01;;;;;;;6.95;1.40;;;18.70;62.10;;;;;;10496109;28;20127;-64
2021/01/08 20:24:01;;;;;;;2.22;0.90;;;18.60;62.20;;;;;;10496039;28;20028;-63
2021/01/08 20:29:04;;;;;;;5.97;1.00;;;18.40;62.30;;;;;;10495463;28;20107;-64
2021/01/08 20:34:05;;;;;;;2.45;0.95;;;18.40;62.60;;;;;;10494340;28;20024;-64
2021/01/08 20:39:06;;;;;;;4.85;1.63;;;18.30;62.70;;;;;;10496580;28;20378;-64
2021/01/08 20:44:06;;;;;;;5.13;1.25;;;18.20;62.80;;;;;;10495635;28;20441;-64
2021/01/08 20:49:07;;;;;;;4.15;1.20;;;18.10;63.00;;;;;;10488757;28;20520;-61
2021/01/08 20:54:08;;;;;;;3.92;1.10;;;18.00;63.10;;;;;;10491766;28;20028;-61
2021/01/08 20:59:09;;;;;;;3.25;1.10;;;17.90;63.40;;;;;;10493939;28;20081;-61
2021/01/08 21:04:10;;;;;;;4.40;1.10;;;17.80;63.50;;;;;;10492673;28;20107;-61
2021/01/08 21:09:11;;;;;;;3.38;1.63;;;17.70;63.50;;;;;;10495834;28;20039;-61
2021/01/08 21:14:12;;;;;;;3.45;1.02;;;17.70;63.60;;;;;;10494211;28;20104;-61
2021/01/08 21:19:12;;;;;;;3.03;1.00;;;17.60;63.60;;;;;;10495872;28;20048;-61
2021/01/08 21:24:13;;;;;;;2.25;1.33;;;17.50;63.50;;;;;;10496028;28;20031;-61
2021/01/08 21:29:14;;;;;;;2.40;1.23;;;17.50;63.50;;;;;;10495729;28;20039;-61
2021/01/08 21:34:15;;;;;;;3.55;1.30;;;17.40;63.40;;;;;;10495779;28;20151;-61
2021/01/08 21:39:15;;;;;;;2.72;1.33;;;17.30;63.50;;;;;;10495389;28;20028;-61
2021/01/08 21:44:17;;;;;;;4.40;1.40;;;17.30;63.50;;;;;;10495694;28;20036;-61
2021/01/08 21:49:18;;;;;;;4.40;1.38;;;17.20;63.40;;;;;;10494449;28;20025;-61
2021/01/08 21:54:21;;;;;;;7.40;1.42;;;17.20;63.30;;;;;;10502582;28;20357;-60
2021/01/08 21:59:22;;;;;;;1.63;1.10;;;17.10;63.30;;;;;;10503158;28;20040;-60
2021/01/08 22:04:23;;;;;;;1.98;1.08;;;17.10;63.30;;;;;;10501459;28;20143;-60
2021/01/08 22:09:24;;;;;;;4.22;1.65;;;17.00;63.20;;;;;;10502841;28;20059;-61
2021/01/08 22:14:25;;;;;;;3.03;1.02;;;17.00;63.30;;;;;;10502098;28;20472;-60
2021/01/08 22:19:25;;;;;;;3.75;1.73;;;16.90;63.30;;;;;;10501361;28;20047;-60
2021/01/08 22:24:26;;;;;;;2.17;1.15;;;16.90;63.40;;;;;;10500706;28;20046;-60
2021/01/08 22:29:27;;;;;;;3.22;1.52;;;16.90;63.40;;;;;;10501659;28;20074;-61
2021/01/08 22:34:28;;;;;;;2.03;1.10;;;16.80;63.40;;;;;;10501552;28;20032;-60
2021/01/08 22:39:28;;;;;;;2.25;1.33;;;16.80;63.50;;;;;;10501770;28;20111;-61
2021/01/08 22:44:29;;;;;;;1.90;1.27;;;16.70;63.50;;;;;;10501307;28;20107;-61
2021/01/08 22:49:30;;;;;;;5.32;1.65;;;16.70;63.50;;;;;;10501103;28;20071;-61
2021/01/08 22:54:30;;;;;;;5.00;1.83;;;16.70;63.50;;;;;;10500736;28;20025;-61
2021/01/08 22:59:31;;;;;;;2.80;1.55;;;16.60;63.30;;;;;;10500704;28;20031;-60
2021/01/08 23:04:32;;;;;;;1.27;1.00;;;16.60;63.30;;;;;;10500545;28;20067;-60
2021/01/08 23:09:32;;;;;;;2.65;1.25;;;16.60;63.40;;;;;;10500697;28;20457;-60
2021/01/08 23:14:33;;;;;;;3.45;1.25;;;16.50;63.40;;;;;;10500050;28;20112;-60
2021/01/08 23:19:34;;;;;;;2.80;1.20;;;16.50;63.40;;;;;;10498779;28;20064;-60
2021/01/08 23:24:34;;;;;;;3.28;1.52;;;16.50;63.40;;;;;;10498612;28;20034;-60
2021/01/08 23:29:35;;;;;;;2.67;1.48;;;16.40;63.40;;;;;;10499722;28;20130;-61
2021/01/08 23:34:36;;;;;;;2.97;1.48;;;16.40;63.40;;;;;;10499089;28;20384;-61
2021/01/08 23:39:36;;;;;;;2.13;1.40;;;16.40;63.40;;;;;;10495256;28;20016;-61
2021/01/08 23:44:37;;;;;;;1.95;1.00;;;16.40;63.40;;;;;;10497570;28;20073;-61
2021/01/08 23:49:38;;;;;;;1.95;1.35;;;16.30;63.30;;;;;;10497513;28;20451;-61
2021/01/08 23:54:38;;;;;;;2.65;1.42;;;16.30;63.30;;;;;;10498494;28;20553;-61
2021/01/08 23:59:39;;;;;;;2.28;1.25;;;16.30;63.20;;;;;;10498451;28;20060;-60
